Latest Weather Observations for Camooweal

IDD60801

Issued at 4:01 pm CST Saturday 25 February 2017 (issued every 30 minutes, with the page automatically refreshed every 10 minutes)

About weather observations | Map of weather stations | Latest weather observations for NT | Other Formats
Station Details ID: 037010 Name: CAMOOWEAL TOWNSHIP Lat: -19.92 Lon: 138.12 Height: 231.2 m
Data from the previous 72 hours. | See also: Recent months at Camooweal
Date/Time
CST
Temp
°C
App
Temp
°C
Dew
Point
°C
Rel
Hum
%
Delta-T
°C
Wind Press
QNH
hPa
Press
MSL
hPa
Rain since
9am
mm
Dir  Spd
km/h
Gust
km/h
Spd
kts
Gust
kts
25/04:00pm 37.7 35.8 13.0 23 15.2 E 15 22 8 12 1008.3 1006.6 0.0
25/03:30pm 38.9 36.4 14.0 23 15.6 ESE 20 35 11 19 1008.5 1006.8 0.0
25/03:00pm 38.1 36.5 14.0 24 15.1 E 15 28 8 15 1008.8 1007.1 0.0
25/02:30pm 38.0 35.2 13.3 23 15.3 E 20 32 11 17 1009.1 1007.4 0.0
25/02:00pm 38.9 36.8 14.7 24 15.3 E 19 56 10 30 1009.4 1007.7 0.0
25/01:30pm 37.8 36.6 15.0 26 14.5 SE 15 26 8 14 1009.8 1008.1 0.0
25/01:00pm 37.9 36.0 15.1 26 14.5 ESE 19 33 10 18 1010.3 1008.6 0.0
25/12:30pm 37.0 35.4 16.0 28 13.5 ESE 19 30 10 16 1010.8 1009.0 0.0
25/12:00pm 36.4 37.1 16.0 29 13.1 ESE 7 13 4 7 1011.2 1009.4 0.0
25/11:30am 35.7 35.0 16.4 31 12.4 SE 15 20 8 11 1011.8 1010.0 0.0
25/11:00am 34.5 33.8 16.4 34 11.6 S 15 24 8 13 1011.9 1010.1 0.0
25/10:30am 33.5 33.7 17.6 38 10.3 SSE 13 24 7 13 1012.3 1010.6 0.0
25/10:00am 32.1 31.3 16.0 38 10.2 S 15 20 8 11 1012.6 1010.9 0.0
25/09:30am 31.3 31.7 17.2 42 9.0 SW 11 15 6 8 1013.1 1011.4 0.0
25/09:00am 30.3 32.5 19.6 52 7.1 SSE 7 11 4 6 1013.3 1011.6 0.0
25/08:30am 29.4 31.0 20.8 60 5.8 SW 13 17 7 9 1013.1 1011.4 0.4
25/08:00am 27.9 31.2 22.6 73 3.6 SW 9 11 5 6 1012.8 1011.1 0.4
25/07:30am 26.2 30.3 22.9 82 2.3 W 6 7 3 4 1012.7 1011.0 0.4
25/07:00am 24.9 30.2 23.0 89 1.3 CALM 0 0 0 0 1012.6 1010.9 0.4
25/06:30am 24.5 29.3 22.8 90 1.2 WNW 2 6 1 3 1012.5 1010.8 0.4
25/06:00am 24.5 28.9 22.8 90 1.2 WSW 4 7 2 4 1012.3 1010.6 0.4
25/05:30am 24.5 28.4 22.9 91 1.1 WSW 7 9 4 5 1011.7 1009.9 0.4
25/05:00am 24.5 28.0 22.8 90 1.2 W 9 11 5 6 1011.6 1009.8 0.4
25/04:30am 24.7 28.2 22.8 89 1.3 WNW 9 15 5 8 1011.6 1009.8 0.4
25/04:00am 25.0 27.9 22.5 86 1.7 WNW 11 17 6 9 1011.7 1009.9 0.4
25/03:30am 25.3 28.2 23.2 88 1.4 NW 13 20 7 11 1011.9 1010.1 0.4
25/03:00am 26.1 28.9 23.0 83 2.1 NW 13 22 7 12 1012.3 1010.6 0.4
25/02:30am 26.1 29.9 23.4 85 1.9 NW 9 15 5 8 1012.6 1010.9 0.4
25/02:00am 26.0 29.2 23.1 84 2.0 WSW 11 15 6 8 1012.3 1010.6 0.0
25/01:30am 26.3 30.4 23.2 83 2.1 SW 7 9 4 5 1012.3 1010.6 0.0
25/01:00am 26.2 30.3 23.3 84 2.0 SW 7 9 4 5 1012.6 1010.9 0.0
25/12:30am 26.1 30.4 23.6 86 1.7 SSW 7 9 4 5 1012.8 1011.1 0.0
25/12:00am 26.2 30.2 23.7 86 1.7 SSW 9 13 5 7 1013.2 1011.5 0.0
 
Date/Time
CST
Temp
°C
App
Temp
°C
Dew
Point
°C
Rel
Hum
%
Delta-T
°C
Wind Press
QNH
hPa
Press
MSL
hPa
Rain since
9am
mm
Dir  Spd
km/h
Gust
km/h
Spd
kts
Gust
kts
24/11:30pm 26.2 30.2 23.7 86 1.7 SSW 9 11 5 6 1013.6 1011.9 0.0
24/11:00pm 26.4 30.6 23.5 84 2.0 SSW 7 7 4 4 1013.9 1012.2 0.0
24/10:30pm 26.7 31.0 23.6 83 2.1 SW 7 9 4 5 1014.2 1012.5 0.0
24/10:00pm 26.7 31.0 23.6 83 2.1 SW 7 9 4 5 1014.0 1012.3 0.0
24/09:30pm 26.9 31.6 24.0 84 2.0 WSW 6 7 3 4 1014.1 1012.4 0.0
24/09:00pm 26.8 30.9 23.9 84 2.0 SSW 9 13 5 7 1013.8 1012.1 0.0
24/08:30pm 26.7 30.5 23.4 82 2.3 SSW 9 11 5 6 1013.3 1011.6 0.0
24/08:00pm 27.3 30.5 23.1 78 2.9 SSW 11 13 6 7 1013.1 1011.4 0.0
24/07:30pm 27.9 30.9 22.6 73 3.6 SSW 11 15 6 8 1012.8 1011.1 0.0
24/07:00pm 28.5 31.0 22.5 70 4.1 SSW 13 17 7 9 1012.7 1011.0 0.0
24/06:30pm 28.8 32.9 23.2 71 3.9 SW 7 9 4 5 1012.4 1010.7 0.0
24/06:00pm 29.3 33.2 23.0 69 4.3 W 7 11 4 6 1011.9 1010.1 0.0
24/05:30pm 30.1 32.9 21.5 60 5.8 SSW 9 15 5 8 1011.6 1009.8 0.0
24/05:00pm 29.8 30.9 22.0 63 5.3 S 19 22 10 12 1011.5 1009.7 0.0
24/04:30pm 29.6 31.4 22.6 66 4.8 SSW 17 20 9 11 1011.5 1009.7 0.0
24/04:00pm 29.5 32.8 22.5 66 4.8 S 9 13 5 7 1011.9 1010.1 0.0
24/03:30pm 28.7 31.1 22.9 71 4.0 SSE 15 20 8 11 1012.2 1010.5 0.0
24/03:00pm 27.8 29.0 23.2 76 3.2 SSW 22 32 12 17 1012.4 1010.7 0.0
24/02:30pm 27.5 27.5 22.4 73 3.5 S 26 39 14 21 1012.7 1011.0 0.0
24/02:00pm 28.5 24.9 21.0 64 5.0 S 41 54 22 29 1012.6 1010.9 0.0
24/01:51pm 31.6 30.9 20.2 50 7.6 ESE 24 50 13 27 1012.8 1011.1 0.0
24/01:50pm 32.9 33.0 20.4 47 8.4 ESE 20 43 11 23 1012.8 1011.1 0.0
24/01:30pm 35.4 35.9 20.1 40 10.3 ESE 17 24 9 13 1012.5 1010.8 0.0
24/01:00pm 34.8 34.9 19.2 39 10.4 ESE 17 24 9 13 1013.3 1011.6 0.0
24/12:30pm 36.1 38.5 21.5 42 10.0 E 11 24 6 13 1014.0 1012.3 0.0
24/12:00pm 34.5 36.0 20.5 44 9.5 E 13 24 7 13 1014.5 1012.8 0.0
24/11:30am 35.1 35.9 20.6 42 9.8 ESE 17 24 9 13 1014.9 1013.2 0.0
24/11:00am 32.9 35.1 21.1 50 8.0 ESE 11 17 6 9 1015.4 1013.6 0.0
24/10:30am 32.9 35.8 22.4 54 7.2 E 11 19 6 10 1015.9 1014.1 0.0
24/10:00am 31.3 33.2 22.0 57 6.4 E 15 20 8 11 1016.2 1014.5 0.0
24/09:30am 30.5 32.8 22.7 63 5.4 ESE 15 22 8 12 1016.4 1014.7 0.0
24/09:00am 29.4 31.2 22.6 67 4.7 SE 17 24 9 13 1016.6 1014.9 0.0
24/08:30am 27.8 29.5 22.3 72 3.7 SE 17 22 9 12 1016.5 1014.8 0.0
24/08:00am 27.0 29.3 22.8 78 2.9 SSE 15 20 8 11 1016.2 1014.5 0.0
24/07:30am 26.0 29.1 23.5 86 1.7 SSE 13 19 7 10 1016.0 1014.2 0.0
24/07:00am 24.6 28.4 23.4 93 0.8 SSE 9 13 5 7 1015.5 1013.7 0.0
24/06:30am 23.2 26.5 22.5 96 0.5 S 9 9 5 5 1015.0 1013.3 0.0
24/06:00am 23.4 27.2 22.7 96 0.5 SSE 7 11 4 6 1014.7 1013.0 0.0
24/05:30am 23.4 26.8 22.7 96 0.5 SSW 9 11 5 6 1014.6 1012.9 0.0
24/05:00am 23.6 27.4 22.8 95 0.5 S 7 9 4 5 1014.3 1012.6 0.0
24/04:30am 23.6 27.5 22.9 96 0.5 S 7 9 4 5 1014.0 1012.3 0.0
24/04:00am 23.5 27.3 22.8 96 0.5 S 7 9 4 5 1013.9 1012.2 0.0
24/03:30am 23.8 27.9 23.0 95 0.5 SSW 6 7 3 4 1014.0 1012.3 0.0
24/03:00am 24.0 27.6 23.0 94 0.7 S 9 9 5 5 1013.8 1012.1 0.0
24/02:30am 23.9 27.8 22.9 94 0.7 S 7 9 4 5 1014.1 1012.4 0.0
24/02:00am 23.9 27.5 23.0 95 0.6 SSW 9 11 5 6 1014.3 1012.6 0.0
24/01:30am 23.8 27.5 22.6 93 0.8 SSW 7 7 4 4 1014.7 1013.0 0.0
24/01:00am 24.1 27.9 22.4 90 1.1 SSW 6 7 3 4 1014.7 1013.0 0.0
24/12:30am 24.7 28.0 22.6 88 1.4 SSW 9 11 5 6 1014.8 1013.1 0.0
24/12:00am 25.3 28.1 23.0 87 1.6 S 13 17 7 9 1015.4 1013.6 0.0
 
Date/Time
CST
Temp
°C
App
Temp
°C
Dew
Point
°C
Rel
Hum
%
Delta-T
°C
Wind Press
QNH
hPa
Press
MSL
hPa
Rain since
9am
mm
Dir  Spd
km/h
Gust
km/h
Spd
kts
Gust
kts
23/11:30pm 25.5 29.2 22.2 82 2.2 S 6 6 3 3 1015.5 1013.7 0.0
23/11:00pm 25.5 29.1 22.0 81 2.4 SSW 6 7 3 4 1015.5 1013.7 0.0
23/10:30pm 25.3 29.4 21.6 80 2.5 ESE 2 6 1 3 1015.3 1013.5 0.0
23/10:00pm 25.4 28.6 21.7 80 2.5 ESE 7 9 4 5 1015.0 1013.3 0.0
23/09:30pm 25.0 28.3 21.9 83 2.1 SE 7 9 4 5 1014.7 1013.0 0.0
23/09:00pm 24.3 26.8 21.8 86 1.7 SE 11 15 6 8 1014.5 1012.8 0.0
23/08:30pm 25.2 25.4 22.7 86 1.7 ESE 26 41 14 22 1014.3 1012.6 0.0
23/08:12pm 26.9 27.2 21.6 72 3.6 ESE 22 35 12 19 1014.3 1012.6 0.0
23/08:00pm 29.0 33.1 22.2 66 4.6 N 4 7 2 4 1013.4 1011.7 0.0
23/07:30pm 29.1 31.8 22.1 66 4.8 N 11 15 6 8 1013.0 1011.3 0.0
23/07:00pm 31.0 33.4 20.9 55 6.8 NNE 9 15 5 8 1012.8 1011.1 0.0
23/06:30pm 31.4 33.4 20.7 53 7.2 NE 11 15 6 8 1012.3 1010.6 0.0
23/06:00pm 31.7 33.4 20.9 52 7.3 ENE 13 20 7 11 1011.9 1010.1 0.0
23/05:30pm 32.5 33.2 20.4 49 8.1 ENE 17 30 9 16 1011.3 1009.5 0.0
23/05:00pm 32.6 34.2 22.1 54 7.2 ENE 17 26 9 14 1011.2 1009.4 0.0
23/04:30pm 31.7 33.2 21.2 53 7.1 NE 15 22 8 12 1011.3 1009.5 0.0
23/04:00pm 31.9 32.9 21.1 52 7.3 ENE 17 26 9 14 1011.2 1009.4 0.0
23/03:30pm 32.1 32.4 21.6 53 7.2 ENE 22 33 12 18 1011.4 1009.6 0.0
23/03:00pm 32.1 32.4 21.6 53 7.2 NE 22 35 12 19 1011.5 1009.7 0.0
23/02:30pm 31.0 31.1 21.2 56 6.6 ENE 22 35 12 19 1011.7 1009.9 0.0
23/02:00pm 30.7 32.0 22.6 62 5.6 ENE 20 32 11 17 1012.1 1010.3 0.0
23/01:30pm 30.4 29.7 21.8 60 5.9 NE 28 41 15 22 1012.4 1010.7 0.0
23/01:00pm 30.2 31.3 22.4 63 5.3 NE 20 35 11 19 1012.8 1011.1 0.0
23/12:30pm 32.0 31.6 20.9 52 7.5 ENE 24 39 13 21 1013.0 1011.3 0.0
23/12:00pm 31.1 31.5 22.4 60 6.0 ENE 24 35 13 19 1013.4 1011.7 0.0
23/11:30am 31.7 31.7 22.4 58 6.4 ENE 26 39 14 21 1013.7 1012.0 0.0
23/11:00am 31.4 30.9 22.1 57 6.4 ENE 28 41 15 22 1014.0 1012.3 0.0
23/10:30am 29.7 30.1 22.4 65 5.0 E 24 33 13 18 1014.4 1012.7 0.0
23/10:00am 29.7 30.2 22.7 66 4.8 E 24 32 13 17 1014.3 1012.6 0.0
23/09:30am 28.8 29.4 22.8 70 4.1 E 24 35 13 19 1014.2 1012.5 0.0
23/09:00am 27.6 28.4 22.5 74 3.5 ENE 22 35 12 19 1014.2 1012.5 0.0
23/08:30am 26.7 27.6 21.9 75 3.2 ENE 20 30 11 16 1014.1 1012.4 0.6
23/08:00am 26.3 27.2 21.9 77 3.0 E 20 32 11 17 1013.9 1012.2 0.6
23/07:30am 25.7 26.5 21.8 79 2.6 E 20 33 11 18 1013.4 1011.7 0.6
23/07:00am 25.0 26.3 21.7 82 2.2 ESE 17 22 9 12 1012.9 1011.2 0.6
23/06:30am 24.6 27.1 21.7 84 1.9 ESE 11 17 6 9 1012.8 1011.1 0.6
23/06:00am 24.5 27.0 21.8 85 1.8 ESE 11 17 6 9 1012.6 1010.9 0.6
23/05:30am 24.5 27.0 21.8 85 1.8 ESE 11 15 6 8 1012.3 1010.6 0.6
23/05:00am 24.7 26.5 21.8 84 1.9 ESE 15 22 8 12 1011.9 1010.1 0.6
23/04:30am 24.9 26.8 22.0 84 2.0 E 15 22 8 12 1011.5 1009.7 0.6
23/04:00am 24.7 26.7 22.2 86 1.7 ESE 15 24 8 13 1011.1 1009.3 0.6
23/03:30am 24.5 26.7 22.6 89 1.3 ESE 15 20 8 11 1010.8 1009.0 0.6
23/03:00am 24.3 26.4 22.4 89 1.3 ESE 15 19 8 10 1010.7 1008.9 0.6
23/02:30am 24.5 27.4 22.4 88 1.4 ESE 11 15 6 8 1010.9 1009.1 0.6
23/02:00am 24.6 27.8 22.3 87 1.6 ESE 9 13 5 7 1011.3 1009.5 0.6
23/01:30am 25.1 27.6 22.4 85 1.8 E 13 17 7 9 1011.6 1009.8 0.6
23/01:00am 25.2 27.7 22.5 85 1.8 E 13 17 7 9 1011.7 1009.9 0.6
23/12:30am 25.2 27.7 22.5 85 1.8 ENE 13 17 7 9 1012.1 1010.3 0.6
23/12:00am 25.2 27.9 22.1 83 2.1 ENE 11 17 6 9 1012.4 1010.7 0.6
 
Date/Time
CST
Temp
°C
App
Temp
°C
Dew
Point
°C
Rel
Hum
%
Delta-T
°C
Wind Press
QNH
hPa
Press
MSL
hPa
Rain since
9am
mm
Dir  Spd
km/h
Gust
km/h
Spd
kts
Gust
kts
22/11:30pm 24.8 27.9 22.1 85 1.8 ESE 9 11 5 6 1012.7 1011.0 0.6
22/11:00pm 25.1 27.7 22.0 83 2.1 E 11 17 6 9 1012.7 1011.0 0.6
22/10:30pm 25.4 27.7 22.1 82 2.2 E 13 20 7 11 1012.8 1011.1 0.6
22/10:00pm 25.5 27.8 22.0 81 2.4 ENE 13 20 7 11 1012.8 1011.1 0.6
22/09:30pm 25.4 27.6 21.9 81 2.4 E 13 20 7 11 1012.7 1011.0 0.6
22/09:00pm 25.5 27.5 21.6 79 2.6 ENE 13 19 7 10 1012.3 1010.6 0.6
22/08:30pm 25.8 28.3 21.7 78 2.8 ENE 11 20 6 11 1012.2 1010.5 0.6
22/08:00pm 26.0 28.9 21.7 77 2.9 ENE 9 13 5 7 1011.6 1009.8 0.6
22/07:30pm 25.9 28.6 21.3 76 3.1 E 9 11 5 6 1011.4 1009.6 0.6
22/07:00pm 26.2 28.5 21.4 75 3.2 ENE 11 15 6 8 1011.1 1009.3 0.6
22/06:30pm 26.7 28.7 21.5 73 3.5 ENE 13 17 7 9 1010.7 1008.9 0.6
22/06:00pm 27.2 28.8 21.5 71 3.8 ENE 15 20 8 11 1010.5 1008.8 0.6
22/05:30pm 27.5 29.1 21.5 70 4.0 ENE 15 20 8 11 1010.7 1008.9 0.6
22/05:00pm 27.7 28.8 22.4 73 3.6 NE 20 32 11 17 1010.2 1008.5 0.6
22/04:30pm 26.8 27.2 21.8 74 3.4 NE 22 32 12 17 1010.1 1008.4 0.6
22/04:00pm 26.5 27.6 22.3 78 2.8 NE 20 30 11 16 1009.9 1008.2 0.6

Other Formats:

Comma delimited format used in spreadsheet applications
http://www.bom.gov.au/fwo/IDD60801/IDD60801.94255.axf

JavaScript Object Notation format (JSON) in row-major order
http://www.bom.gov.au/fwo/IDD60801/IDD60801.94255.json